sensor_id;sensor_type;location;lat;lon;timestamp;P1;durP1;ratioP1;P2;durP2;ratioP2
2728;SDS011;1372;47.956;7.830;2023-05-29T00:00:18;5.40;;;4.67;;
2728;SDS011;1372;47.956;7.830;2023-05-29T00:02:48;7.13;;;5.10;;
2728;SDS011;1372;47.956;7.830;2023-05-29T00:05:18;5.60;;;4.43;;
2728;SDS011;1372;47.956;7.830;2023-05-29T00:07:47;7.50;;;4.87;;
2728;SDS011;1372;47.956;7.830;2023-05-29T00:10:17;5.07;;;4.07;;
2728;SDS011;1372;47.956;7.830;2023-05-29T00:12:45;5.90;;;4.30;;
2728;SDS011;1372;47.956;7.830;2023-05-29T00:15:14;6.57;;;4.10;;
2728;SDS011;1372;47.956;7.830;2023-05-29T00:17:45;5.47;;;4.30;;
2728;SDS011;1372;47.956;7.830;2023-05-29T00:20:13;7.47;;;4.97;;
2728;SDS011;1372;47.956;7.830;2023-05-29T00:22:42;6.53;;;4.63;;
2728;SDS011;1372;47.956;7.830;2023-05-29T00:25:11;7.00;;;5.10;;
2728;SDS011;1372;47.956;7.830;2023-05-29T00:27:40;6.70;;;4.83;;
2728;SDS011;1372;47.956;7.830;2023-05-29T00:30:09;4.97;;;4.47;;
2728;SDS011;1372;47.956;7.830;2023-05-29T00:32:39;6.73;;;5.20;;
2728;SDS011;1372;47.956;7.830;2023-05-29T00:35:10;6.07;;;4.20;;
2728;SDS011;1372;47.956;7.830;2023-05-29T00:37:39;7.10;;;5.13;;
2728;SDS011;1372;47.956;7.830;2023-05-29T00:40:08;7.43;;;4.60;;
2728;SDS011;1372;47.956;7.830;2023-05-29T00:42:39;7.43;;;4.47;;
2728;SDS011;1372;47.956;7.830;2023-05-29T00:45:08;6.33;;;4.60;;
2728;SDS011;1372;47.956;7.830;2023-05-29T00:47:39;4.63;;;3.90;;
2728;SDS011;1372;47.956;7.830;2023-05-29T00:50:11;6.13;;;4.73;;
2728;SDS011;1372;47.956;7.830;2023-05-29T00:52:42;6.40;;;4.43;;
2728;SDS011;1372;47.956;7.830;2023-05-29T00:55:12;9.37;;;5.37;;
2728;SDS011;1372;47.956;7.830;2023-05-29T00:57:42;7.57;;;4.90;;
2728;SDS011;1372;47.956;7.830;2023-05-29T01:00:15;4.90;;;3.97;;
2728;SDS011;1372;47.956;7.830;2023-05-29T01:02:46;7.83;;;4.63;;
2728;SDS011;1372;47.956;7.830;2023-05-29T01:05:20;5.50;;;4.80;;
2728;SDS011;1372;47.956;7.830;2023-05-29T01:07:49;6.67;;;4.40;;
2728;SDS011;1372;47.956;7.830;2023-05-29T01:10:17;6.93;;;4.80;;
2728;SDS011;1372;47.956;7.830;2023-05-29T01:12:47;5.40;;;4.53;;
2728;SDS011;1372;47.956;7.830;2023-05-29T01:15:26;7.20;;;4.70;;
2728;SDS011;1372;47.956;7.830;2023-05-29T01:18:08;11.03;;;4.50;;
2728;SDS011;1372;47.956;7.830;2023-05-29T01:20:57;5.90;;;4.30;;
2728;SDS011;1372;47.956;7.830;2023-05-29T01:26:45;7.30;;;4.30;;
2728;SDS011;1372;47.956;7.830;2023-05-29T01:29:18;6.00;;;4.30;;
2728;SDS011;1372;47.956;7.830;2023-05-29T01:31:51;6.60;;;3.97;;
2728;SDS011;1372;47.956;7.830;2023-05-29T01:34:20;5.23;;;3.90;;
2728;SDS011;1372;47.956;7.830;2023-05-29T01:36:49;7.53;;;4.97;;
2728;SDS011;1372;47.956;7.830;2023-05-29T01:39:18;7.23;;;4.63;;
2728;SDS011;1372;47.956;7.830;2023-05-29T01:41:49;7.17;;;4.57;;
2728;SDS011;1372;47.956;7.830;2023-05-29T01:44:18;6.57;;;4.77;;
2728;SDS011;1372;47.956;7.830;2023-05-29T01:46:48;4.37;;;3.67;;
2728;SDS011;1372;47.956;7.830;2023-05-29T01:49:18;4.60;;;3.80;;
2728;SDS011;1372;47.956;7.830;2023-05-29T01:51:47;5.50;;;4.40;;
2728;SDS011;1372;47.956;7.830;2023-05-29T01:54:16;5.60;;;4.57;;
2728;SDS011;1372;47.956;7.830;2023-05-29T01:56:45;5.50;;;4.20;;
2728;SDS011;1372;47.956;7.830;2023-05-29T01:59:17;7.17;;;4.90;;
2728;SDS011;1372;47.956;7.830;2023-05-29T02:01:47;4.70;;;3.80;;
2728;SDS011;1372;47.956;7.830;2023-05-29T02:04:15;6.43;;;4.83;;
2728;SDS011;1372;47.956;7.830;2023-05-29T02:06:44;7.10;;;5.20;;
2728;SDS011;1372;47.956;7.830;2023-05-29T02:09:13;5.20;;;4.30;;
2728;SDS011;1372;47.956;7.830;2023-05-29T02:11:44;6.87;;;4.20;;
2728;SDS011;1372;47.956;7.830;2023-05-29T02:14:14;9.43;;;4.50;;
2728;SDS011;1372;47.956;7.830;2023-05-29T02:16:43;7.40;;;5.13;;
2728;SDS011;1372;47.956;7.830;2023-05-29T02:19:12;6.10;;;4.00;;
2728;SDS011;1372;47.956;7.830;2023-05-29T02:21:40;4.87;;;3.80;;
2728;SDS011;1372;47.956;7.830;2023-05-29T02:24:09;7.80;;;4.17;;
2728;SDS011;1372;47.956;7.830;2023-05-29T02:26:40;5.80;;;4.27;;
2728;SDS011;1372;47.956;7.830;2023-05-29T02:29:11;5.60;;;4.33;;
2728;SDS011;1372;47.956;7.830;2023-05-29T02:31:42;7.00;;;4.20;;
2728;SDS011;1372;47.956;7.830;2023-05-29T02:34:11;5.30;;;3.90;;
2728;SDS011;1372;47.956;7.830;2023-05-29T02:36:40;6.17;;;4.73;;
2728;SDS011;1372;47.956;7.830;2023-05-29T02:39:09;5.20;;;4.17;;
2728;SDS011;1372;47.956;7.830;2023-05-29T02:41:38;5.03;;;4.37;;
2728;SDS011;1372;47.956;7.830;2023-05-29T02:44:06;4.93;;;4.43;;
2728;SDS011;1372;47.956;7.830;2023-05-29T02:46:35;6.80;;;4.63;;
2728;SDS011;1372;47.956;7.830;2023-05-29T02:49:08;5.23;;;4.20;;
2728;SDS011;1372;47.956;7.830;2023-05-29T02:51:36;6.10;;;4.30;;
2728;SDS011;1372;47.956;7.830;2023-05-29T02:54:05;6.70;;;4.57;;
2728;SDS011;1372;47.956;7.830;2023-05-29T02:56:34;5.67;;;3.90;;
2728;SDS011;1372;47.956;7.830;2023-05-29T02:59:02;7.60;;;4.17;;
2728;SDS011;1372;47.956;7.830;2023-05-29T03:01:31;7.70;;;5.10;;
2728;SDS011;1372;47.956;7.830;2023-05-29T03:04:00;4.27;;;3.60;;
2728;SDS011;1372;47.956;7.830;2023-05-29T03:06:30;5.67;;;4.60;;
2728;SDS011;1372;47.956;7.830;2023-05-29T03:08:59;7.10;;;4.63;;
2728;SDS011;1372;47.956;7.830;2023-05-29T03:11:29;6.70;;;4.30;;
2728;SDS011;1372;47.956;7.830;2023-05-29T03:13:57;6.60;;;4.30;;
2728;SDS011;1372;47.956;7.830;2023-05-29T03:16:27;6.03;;;4.50;;
2728;SDS011;1372;47.956;7.830;2023-05-29T03:18:56;6.20;;;4.67;;
2728;SDS011;1372;47.956;7.830;2023-05-29T03:21:25;6.27;;;4.53;;
2728;SDS011;1372;47.956;7.830;2023-05-29T03:23:55;6.70;;;4.47;;
2728;SDS011;1372;47.956;7.830;2023-05-29T03:26:27;5.80;;;4.57;;
2728;SDS011;1372;47.956;7.830;2023-05-29T03:28:56;9.40;;;4.10;;
2728;SDS011;1372;47.956;7.830;2023-05-29T03:31:26;8.70;;;5.20;;
2728;SDS011;1372;47.956;7.830;2023-05-29T03:33:56;5.03;;;4.47;;
2728;SDS011;1372;47.956;7.830;2023-05-29T03:36:25;6.27;;;3.80;;
2728;SDS011;1372;47.956;7.830;2023-05-29T03:38:56;5.60;;;4.33;;
2728;SDS011;1372;47.956;7.830;2023-05-29T03:41:27;7.03;;;4.60;;
2728;SDS011;1372;47.956;7.830;2023-05-29T03:43:56;5.97;;;4.17;;
2728;SDS011;1372;47.956;7.830;2023-05-29T03:46:25;6.40;;;4.40;;
2728;SDS011;1372;47.956;7.830;2023-05-29T03:48:57;8.50;;;5.03;;
2728;SDS011;1372;47.956;7.830;2023-05-29T03:51:26;5.60;;;4.20;;
2728;SDS011;1372;47.956;7.830;2023-05-29T03:53:58;6.00;;;4.30;;
2728;SDS011;1372;47.956;7.830;2023-05-29T03:56:27;5.33;;;3.70;;
2728;SDS011;1372;47.956;7.830;2023-05-29T03:58:56;7.50;;;4.80;;
2728;SDS011;1372;47.956;7.830;2023-05-29T04:01:25;12.03;;;5.00;;
2728;SDS011;1372;47.956;7.830;2023-05-29T04:03:55;8.27;;;4.57;;
2728;SDS011;1372;47.956;7.830;2023-05-29T04:06:24;5.63;;;4.00;;
2728;SDS011;1372;47.956;7.830;2023-05-29T04:08:55;6.47;;;4.47;;
2728;SDS011;1372;47.956;7.830;2023-05-29T04:11:25;6.23;;;4.50;;
2728;SDS011;1372;47.956;7.830;2023-05-29T04:13:54;6.40;;;5.43;;
2728;SDS011;1372;47.956;7.830;2023-05-29T04:16:23;7.37;;;5.13;;
2728;SDS011;1372;47.956;7.830;2023-05-29T04:18:52;5.80;;;4.30;;
2728;SDS011;1372;47.956;7.830;2023-05-29T04:21:20;6.23;;;4.70;;
2728;SDS011;1372;47.956;7.830;2023-05-29T04:23:49;6.80;;;4.50;;
2728;SDS011;1372;47.956;7.830;2023-05-29T04:26:21;6.80;;;5.00;;
2728;SDS011;1372;47.956;7.830;2023-05-29T04:28:52;7.20;;;4.83;;
2728;SDS011;1372;47.956;7.830;2023-05-29T04:31:24;5.30;;;4.07;;
2728;SDS011;1372;47.956;7.830;2023-05-29T04:33:53;6.20;;;4.80;;
2728;SDS011;1372;47.956;7.830;2023-05-29T04:36:25;6.60;;;4.50;;
2728;SDS011;1372;47.956;7.830;2023-05-29T04:38:54;5.50;;;4.27;;
2728;SDS011;1372;47.956;7.830;2023-05-29T04:41:25;6.80;;;5.00;;
2728;SDS011;1372;47.956;7.830;2023-05-29T04:43:58;5.53;;;4.93;;
2728;SDS011;1372;47.956;7.830;2023-05-29T04:46:26;6.77;;;4.60;;
2728;SDS011;1372;47.956;7.830;2023-05-29T04:48:55;7.37;;;5.13;;
2728;SDS011;1372;47.956;7.830;2023-05-29T04:51:27;8.37;;;6.40;;
2728;SDS011;1372;47.956;7.830;2023-05-29T04:53:56;6.93;;;4.40;;
2728;SDS011;1372;47.956;7.830;2023-05-29T04:56:26;7.77;;;5.30;;
2728;SDS011;1372;47.956;7.830;2023-05-29T04:58:55;8.07;;;4.87;;
2728;SDS011;1372;47.956;7.830;2023-05-29T05:01:25;7.77;;;5.07;;
2728;SDS011;1372;47.956;7.830;2023-05-29T05:03:54;5.80;;;4.73;;
2728;SDS011;1372;47.956;7.830;2023-05-29T05:06:23;6.07;;;5.57;;
2728;SDS011;1372;47.956;7.830;2023-05-29T05:08:53;8.53;;;5.63;;
2728;SDS011;1372;47.956;7.830;2023-05-29T05:11:22;7.17;;;5.40;;
2728;SDS011;1372;47.956;7.830;2023-05-29T05:13:53;7.90;;;5.30;;
2728;SDS011;1372;47.956;7.830;2023-05-29T05:16:22;8.30;;;5.57;;
2728;SDS011;1372;47.956;7.830;2023-05-29T05:18:51;8.30;;;5.30;;
2728;SDS011;1372;47.956;7.830;2023-05-29T05:21:20;6.10;;;5.00;;
2728;SDS011;1372;47.956;7.830;2023-05-29T05:23:48;8.23;;;5.57;;
2728;SDS011;1372;47.956;7.830;2023-05-29T05:26:24;6.87;;;5.23;;
2728;SDS011;1372;47.956;7.830;2023-05-29T05:28:55;8.07;;;5.53;;
2728;SDS011;1372;47.956;7.830;2023-05-29T05:31:24;6.97;;;5.30;;
2728;SDS011;1372;47.956;7.830;2023-05-29T05:33:54;9.27;;;5.97;;
2728;SDS011;1372;47.956;7.830;2023-05-29T05:36:22;7.63;;;5.33;;
2728;SDS011;1372;47.956;7.830;2023-05-29T05:38:51;7.50;;;5.03;;
2728;SDS011;1372;47.956;7.830;2023-05-29T05:41:20;6.23;;;4.90;;
2728;SDS011;1372;47.956;7.830;2023-05-29T05:43:49;6.20;;;5.50;;
2728;SDS011;1372;47.956;7.830;2023-05-29T05:46:19;7.20;;;5.10;;
2728;SDS011;1372;47.956;7.830;2023-05-29T05:48:49;9.73;;;5.50;;
2728;SDS011;1372;47.956;7.830;2023-05-29T05:51:18;6.50;;;5.23;;
2728;SDS011;1372;47.956;7.830;2023-05-29T05:53:47;7.40;;;4.83;;
2728;SDS011;1372;47.956;7.830;2023-05-29T05:56:16;8.33;;;5.20;;
2728;SDS011;1372;47.956;7.830;2023-05-29T05:58:48;7.37;;;5.20;;
2728;SDS011;1372;47.956;7.830;2023-05-29T06:01:21;8.43;;;6.13;;
2728;SDS011;1372;47.956;7.830;2023-05-29T06:03:50;7.73;;;5.80;;
2728;SDS011;1372;47.956;7.830;2023-05-29T06:06:18;7.10;;;5.17;;
2728;SDS011;1372;47.956;7.830;2023-05-29T06:08:47;7.20;;;5.03;;
2728;SDS011;1372;47.956;7.830;2023-05-29T06:11:16;9.30;;;6.00;;
2728;SDS011;1372;47.956;7.830;2023-05-29T06:13:45;9.00;;;5.80;;
2728;SDS011;1372;47.956;7.830;2023-05-29T06:16:14;6.90;;;5.20;;
2728;SDS011;1372;47.956;7.830;2023-05-29T06:18:44;9.60;;;7.40;;
2728;SDS011;1372;47.956;7.830;2023-05-29T06:21:13;8.60;;;5.73;;
2728;SDS011;1372;47.956;7.830;2023-05-29T06:23:43;9.70;;;6.20;;
2728;SDS011;1372;47.956;7.830;2023-05-29T06:26:12;7.33;;;5.50;;
2728;SDS011;1372;47.956;7.830;2023-05-29T06:28:42;8.93;;;6.40;;
2728;SDS011;1372;47.956;7.830;2023-05-29T06:31:11;9.43;;;5.77;;
2728;SDS011;1372;47.956;7.830;2023-05-29T06:33:40;10.60;;;6.00;;
2728;SDS011;1372;47.956;7.830;2023-05-29T06:36:17;8.57;;;7.40;;
2728;SDS011;1372;47.956;7.830;2023-05-29T06:38:47;8.43;;;5.93;;
2728;SDS011;1372;47.956;7.830;2023-05-29T06:41:16;9.07;;;6.70;;
2728;SDS011;1372;47.956;7.830;2023-05-29T06:43:47;8.23;;;6.50;;
2728;SDS011;1372;47.956;7.830;2023-05-29T06:46:15;9.30;;;6.23;;
2728;SDS011;1372;47.956;7.830;2023-05-29T06:48:45;8.17;;;6.07;;
2728;SDS011;1372;47.956;7.830;2023-05-29T06:51:15;9.50;;;6.20;;
2728;SDS011;1372;47.956;7.830;2023-05-29T06:53:48;9.03;;;6.97;;
2728;SDS011;1372;47.956;7.830;2023-05-29T06:56:16;7.23;;;6.13;;
2728;SDS011;1372;47.956;7.830;2023-05-29T06:58:45;7.60;;;6.20;;
2728;SDS011;1372;47.956;7.830;2023-05-29T07:01:14;9.07;;;6.67;;
2728;SDS011;1372;47.956;7.830;2023-05-29T07:03:44;10.33;;;5.47;;
2728;SDS011;1372;47.956;7.830;2023-05-29T07:06:15;8.23;;;6.60;;
2728;SDS011;1372;47.956;7.830;2023-05-29T07:08:44;7.93;;;5.70;;
2728;SDS011;1372;47.956;7.830;2023-05-29T07:11:13;9.33;;;6.53;;
2728;SDS011;1372;47.956;7.830;2023-05-29T07:13:42;7.33;;;6.57;;
2728;SDS011;1372;47.956;7.830;2023-05-29T07:16:11;9.10;;;5.57;;
2728;SDS011;1372;47.956;7.830;2023-05-29T07:18:52;11.20;;;6.03;;
2728;SDS011;1372;47.956;7.830;2023-05-29T07:21:20;8.57;;;6.07;;
2728;SDS011;1372;47.956;7.830;2023-05-29T07:23:49;6.83;;;5.83;;
2728;SDS011;1372;47.956;7.830;2023-05-29T07:26:20;8.83;;;5.90;;
2728;SDS011;1372;47.956;7.830;2023-05-29T07:28:52;7.50;;;6.40;;
2728;SDS011;1372;47.956;7.830;2023-05-29T07:31:21;11.03;;;5.80;;
2728;SDS011;1372;47.956;7.830;2023-05-29T07:33:51;8.07;;;6.30;;
2728;SDS011;1372;47.956;7.830;2023-05-29T07:36:20;7.20;;;5.70;;
2728;SDS011;1372;47.956;7.830;2023-05-29T07:38:49;7.33;;;5.30;;
2728;SDS011;1372;47.956;7.830;2023-05-29T07:41:20;7.03;;;5.50;;
2728;SDS011;1372;47.956;7.830;2023-05-29T07:43:51;6.60;;;5.40;;
2728;SDS011;1372;47.956;7.830;2023-05-29T07:46:24;6.80;;;5.30;;
2728;SDS011;1372;47.956;7.830;2023-05-29T07:48:55;7.80;;;5.87;;
2728;SDS011;1372;47.956;7.830;2023-05-29T07:51:24;7.40;;;5.60;;
2728;SDS011;1372;47.956;7.830;2023-05-29T07:53:53;9.70;;;5.70;;
2728;SDS011;1372;47.956;7.830;2023-05-29T07:56:22;7.83;;;5.90;;
2728;SDS011;1372;47.956;7.830;2023-05-29T07:58:52;8.47;;;6.07;;
2728;SDS011;1372;47.956;7.830;2023-05-29T08:01:21;8.80;;;5.90;;
2728;SDS011;1372;47.956;7.830;2023-05-29T08:03:50;7.30;;;5.60;;
2728;SDS011;1372;47.956;7.830;2023-05-29T08:06:21;7.70;;;5.73;;
2728;SDS011;1372;47.956;7.830;2023-05-29T08:08:50;7.03;;;5.40;;
2728;SDS011;1372;47.956;7.830;2023-05-29T08:11:20;7.27;;;6.00;;
2728;SDS011;1372;47.956;7.830;2023-05-29T08:13:50;6.33;;;5.10;;
2728;SDS011;1372;47.956;7.830;2023-05-29T08:16:18;7.10;;;5.70;;
2728;SDS011;1372;47.956;7.830;2023-05-29T08:18:49;5.80;;;5.03;;
2728;SDS011;1372;47.956;7.830;2023-05-29T08:21:17;5.57;;;5.00;;
2728;SDS011;1372;47.956;7.830;2023-05-29T08:23:48;8.93;;;5.30;;
2728;SDS011;1372;47.956;7.830;2023-05-29T08:26:19;9.57;;;6.37;;
2728;SDS011;1372;47.956;7.830;2023-05-29T08:28:48;15.13;;;5.53;;
2728;SDS011;1372;47.956;7.830;2023-05-29T08:31:17;5.53;;;4.97;;
2728;SDS011;1372;47.956;7.830;2023-05-29T08:33:47;8.10;;;5.70;;
2728;SDS011;1372;47.956;7.830;2023-05-29T08:36:16;5.70;;;5.10;;
2728;SDS011;1372;47.956;7.830;2023-05-29T08:38:49;5.60;;;4.83;;
2728;SDS011;1372;47.956;7.830;2023-05-29T08:41:21;5.53;;;4.73;;
2728;SDS011;1372;47.956;7.830;2023-05-29T08:43:54;6.37;;;5.50;;
2728;SDS011;1372;47.956;7.830;2023-05-29T08:46:24;5.87;;;5.27;;
2728;SDS011;1372;47.956;7.830;2023-05-29T08:48:53;7.93;;;5.50;;
2728;SDS011;1372;47.956;7.830;2023-05-29T08:51:31;7.40;;;4.93;;
2728;SDS011;1372;47.956;7.830;2023-05-29T08:54:07;5.80;;;5.10;;
2728;SDS011;1372;47.956;7.830;2023-05-29T08:56:36;5.87;;;5.20;;
2728;SDS011;1372;47.956;7.830;2023-05-29T08:59:05;8.10;;;4.67;;
2728;SDS011;1372;47.956;7.830;2023-05-29T09:01:36;5.17;;;4.67;;
2728;SDS011;1372;47.956;7.830;2023-05-29T09:04:07;8.37;;;4.80;;
2728;SDS011;1372;47.956;7.830;2023-05-29T09:06:37;7.47;;;5.00;;
2728;SDS011;1372;47.956;7.830;2023-05-29T09:09:11;4.97;;;4.47;;
2728;SDS011;1372;47.956;7.830;2023-05-29T09:11:43;4.90;;;4.10;;
2728;SDS011;1372;47.956;7.830;2023-05-29T09:17:07;6.90;;;4.37;;
2728;SDS011;1372;47.956;7.830;2023-05-29T09:19:38;5.33;;;4.50;;
2728;SDS011;1372;47.956;7.830;2023-05-29T09:22:10;5.43;;;4.27;;
2728;SDS011;1372;47.956;7.830;2023-05-29T09:24:45;5.67;;;4.50;;
2728;SDS011;1372;47.956;7.830;2023-05-29T09:27:17;7.93;;;5.23;;
2728;SDS011;1372;47.956;7.830;2023-05-29T09:29:47;5.97;;;5.07;;
2728;SDS011;1372;47.956;7.830;2023-05-29T09:32:16;10.27;;;5.27;;
2728;SDS011;1372;47.956;7.830;2023-05-29T09:34:46;5.70;;;4.30;;
2728;SDS011;1372;47.956;7.830;2023-05-29T09:37:15;4.97;;;4.13;;
2728;SDS011;1372;47.956;7.830;2023-05-29T09:39:50;7.33;;;4.90;;
2728;SDS011;1372;47.956;7.830;2023-05-29T09:42:19;7.77;;;4.47;;
2728;SDS011;1372;47.956;7.830;2023-05-29T09:44:52;6.57;;;4.30;;
2728;SDS011;1372;47.956;7.830;2023-05-29T09:47:26;5.50;;;4.50;;
2728;SDS011;1372;47.956;7.830;2023-05-29T09:50:02;7.30;;;4.90;;
2728;SDS011;1372;47.956;7.830;2023-05-29T09:52:35;6.10;;;4.90;;
2728;SDS011;1372;47.956;7.830;2023-05-29T09:55:08;9.20;;;4.70;;
2728;SDS011;1372;47.956;7.830;2023-05-29T09:57:38;5.03;;;4.53;;
2728;SDS011;1372;47.956;7.830;2023-05-29T10:00:08;5.73;;;4.77;;
2728;SDS011;1372;47.956;7.830;2023-05-29T10:02:40;8.00;;;4.97;;
2728;SDS011;1372;47.956;7.830;2023-05-29T10:05:09;4.77;;;4.03;;
2728;SDS011;1372;47.956;7.830;2023-05-29T10:07:43;6.40;;;4.40;;
2728;SDS011;1372;47.956;7.830;2023-05-29T10:10:17;10.27;;;4.60;;
2728;SDS011;1372;47.956;7.830;2023-05-29T10:12:48;7.90;;;4.57;;
2728;SDS011;1372;47.956;7.830;2023-05-29T10:15:20;6.73;;;4.33;;
2728;SDS011;1372;47.956;7.830;2023-05-29T10:17:57;6.40;;;4.40;;
2728;SDS011;1372;47.956;7.830;2023-05-29T10:20:31;6.37;;;4.90;;
2728;SDS011;1372;47.956;7.830;2023-05-29T10:23:03;5.03;;;4.37;;
2728;SDS011;1372;47.956;7.830;2023-05-29T10:25:34;7.07;;;4.20;;
2728;SDS011;1372;47.956;7.830;2023-05-29T10:28:07;6.13;;;3.87;;
2728;SDS011;1372;47.956;7.830;2023-05-29T10:30:36;6.50;;;5.37;;
2728;SDS011;1372;47.956;7.830;2023-05-29T10:36:17;6.40;;;4.33;;
2728;SDS011;1372;47.956;7.830;2023-05-29T10:38:48;5.80;;;4.50;;
2728;SDS011;1372;47.956;7.830;2023-05-29T10:41:32;4.47;;;4.07;;
2728;SDS011;1372;47.956;7.830;2023-05-29T10:47:12;4.30;;;3.90;;
2728;SDS011;1372;47.956;7.830;2023-05-29T10:49:51;6.00;;;4.60;;
2728;SDS011;1372;47.956;7.830;2023-05-29T10:52:20;6.80;;;4.80;;
2728;SDS011;1372;47.956;7.830;2023-05-29T10:54:50;7.07;;;4.47;;
2728;SDS011;1372;47.956;7.830;2023-05-29T10:57:23;4.80;;;4.40;;
2728;SDS011;1372;47.956;7.830;2023-05-29T10:59:59;6.33;;;4.47;;
2728;SDS011;1372;47.956;7.830;2023-05-29T11:02:40;5.10;;;4.60;;
2728;SDS011;1372;47.956;7.830;2023-05-29T11:07:57;5.80;;;4.77;;
2728;SDS011;1372;47.956;7.830;2023-05-29T11:10:42;5.53;;;4.33;;
2728;SDS011;1372;47.956;7.830;2023-05-29T11:13:24;5.40;;;4.00;;
2728;SDS011;1372;47.956;7.830;2023-05-29T11:16:12;4.87;;;4.37;;
2728;SDS011;1372;47.956;7.830;2023-05-29T11:18:48;4.63;;;4.23;;
2728;SDS011;1372;47.956;7.830;2023-05-29T11:21:28;5.17;;;4.40;;
2728;SDS011;1372;47.956;7.830;2023-05-29T11:24:03;4.97;;;4.30;;
2728;SDS011;1372;47.956;7.830;2023-05-29T11:26:35;5.00;;;4.03;;
2728;SDS011;1372;47.956;7.830;2023-05-29T11:29:09;6.63;;;4.20;;
2728;SDS011;1372;47.956;7.830;2023-05-29T11:31:41;4.63;;;4.23;;
2728;SDS011;1372;47.956;7.830;2023-05-29T11:34:13;7.00;;;3.80;;
2728;SDS011;1372;47.956;7.830;2023-05-29T11:36:43;5.17;;;4.67;;
2728;SDS011;1372;47.956;7.830;2023-05-29T11:39:17;7.50;;;4.60;;
2728;SDS011;1372;47.956;7.830;2023-05-29T11:41:50;5.53;;;4.30;;
2728;SDS011;1372;47.956;7.830;2023-05-29T11:44:21;5.80;;;4.23;;
2728;SDS011;1372;47.956;7.830;2023-05-29T11:46:59;4.50;;;4.00;;
2728;SDS011;1372;47.956;7.830;2023-05-29T11:49:30;4.60;;;4.20;;
2728;SDS011;1372;47.956;7.830;2023-05-29T11:52:07;5.30;;;4.83;;
2728;SDS011;1372;47.956;7.830;2023-05-29T11:54:42;5.73;;;4.50;;
2728;SDS011;1372;47.956;7.830;2023-05-29T11:57:18;6.00;;;4.37;;
2728;SDS011;1372;47.956;7.830;2023-05-29T11:59:51;5.20;;;4.30;;
2728;SDS011;1372;47.956;7.830;2023-05-29T12:02:25;4.67;;;4.07;;
2728;SDS011;1372;47.956;7.830;2023-05-29T12:05:01;5.43;;;4.30;;
2728;SDS011;1372;47.956;7.830;2023-05-29T12:07:31;7.10;;;4.87;;
2728;SDS011;1372;47.956;7.830;2023-05-29T12:10:08;5.70;;;4.47;;
2728;SDS011;1372;47.956;7.830;2023-05-29T12:12:38;5.03;;;4.60;;
2728;SDS011;1372;47.956;7.830;2023-05-29T12:15:09;5.40;;;4.00;;
2728;SDS011;1372;47.956;7.830;2023-05-29T12:17:41;5.33;;;4.83;;
2728;SDS011;1372;47.956;7.830;2023-05-29T12:20:10;4.93;;;4.47;;
2728;SDS011;1372;47.956;7.830;2023-05-29T12:22:41;5.20;;;4.40;;
2728;SDS011;1372;47.956;7.830;2023-05-29T12:25:12;5.37;;;4.83;;
2728;SDS011;1372;47.956;7.830;2023-05-29T12:27:43;5.90;;;4.80;;
2728;SDS011;1372;47.956;7.830;2023-05-29T12:30:20;5.70;;;4.47;;
2728;SDS011;1372;47.956;7.830;2023-05-29T12:32:58;6.40;;;4.40;;
2728;SDS011;1372;47.956;7.830;2023-05-29T12:35:29;5.57;;;4.77;;
2728;SDS011;1372;47.956;7.830;2023-05-29T12:38:01;5.97;;;4.87;;
2728;SDS011;1372;47.956;7.830;2023-05-29T12:40:35;7.30;;;6.60;;
2728;SDS011;1372;47.956;7.830;2023-05-29T12:43:07;5.10;;;4.50;;
2728;SDS011;1372;47.956;7.830;2023-05-29T12:45:38;5.63;;;4.27;;
2728;SDS011;1372;47.956;7.830;2023-05-29T12:48:07;5.07;;;4.57;;
2728;SDS011;1372;47.956;7.830;2023-05-29T12:50:37;5.47;;;4.50;;
2728;SDS011;1372;47.956;7.830;2023-05-29T12:53:07;6.57;;;4.97;;
2728;SDS011;1372;47.956;7.830;2023-05-29T12:55:38;6.00;;;5.40;;
2728;SDS011;1372;47.956;7.830;2023-05-29T12:58:10;5.30;;;4.57;;
2728;SDS011;1372;47.956;7.830;2023-05-29T13:00:42;5.40;;;4.57;;
2728;SDS011;1372;47.956;7.830;2023-05-29T13:03:13;6.90;;;5.27;;
2728;SDS011;1372;47.956;7.830;2023-05-29T13:05:42;6.27;;;5.37;;
2728;SDS011;1372;47.956;7.830;2023-05-29T13:08:14;5.43;;;4.93;;
2728;SDS011;1372;47.956;7.830;2023-05-29T13:10:43;6.87;;;5.43;;
2728;SDS011;1372;47.956;7.830;2023-05-29T13:13:13;5.93;;;5.27;;
2728;SDS011;1372;47.956;7.830;2023-05-29T13:15:43;5.63;;;4.63;;
2728;SDS011;1372;47.956;7.830;2023-05-29T13:18:12;5.57;;;5.07;;
2728;SDS011;1372;47.956;7.830;2023-05-29T13:20:43;5.33;;;4.67;;
2728;SDS011;1372;47.956;7.830;2023-05-29T13:23:12;6.20;;;4.80;;
2728;SDS011;1372;47.956;7.830;2023-05-29T13:25:41;6.10;;;5.30;;
2728;SDS011;1372;47.956;7.830;2023-05-29T13:28:10;6.73;;;4.63;;
2728;SDS011;1372;47.956;7.830;2023-05-29T13:30:39;6.53;;;4.40;;
2728;SDS011;1372;47.956;7.830;2023-05-29T13:33:11;5.20;;;4.57;;
2728;SDS011;1372;47.956;7.830;2023-05-29T13:35:43;6.90;;;4.80;;
2728;SDS011;1372;47.956;7.830;2023-05-29T13:38:11;6.10;;;4.97;;
2728;SDS011;1372;47.956;7.830;2023-05-29T13:40:58;6.07;;;4.40;;
2728;SDS011;1372;47.956;7.830;2023-05-29T13:43:30;5.67;;;4.00;;
2728;SDS011;1372;47.956;7.830;2023-05-29T13:46:10;4.67;;;4.20;;
2728;SDS011;1372;47.956;7.830;2023-05-29T13:48:48;6.17;;;4.23;;
2728;SDS011;1372;47.956;7.830;2023-05-29T13:51:17;4.90;;;4.27;;
2728;SDS011;1372;47.956;7.830;2023-05-29T13:53:46;4.57;;;4.17;;
2728;SDS011;1372;47.956;7.830;2023-05-29T13:56:14;4.33;;;3.93;;
2728;SDS011;1372;47.956;7.830;2023-05-29T13:58:43;5.10;;;4.60;;
2728;SDS011;1372;47.956;7.830;2023-05-29T14:01:14;4.53;;;3.70;;
2728;SDS011;1372;47.956;7.830;2023-05-29T14:03:47;5.20;;;4.70;;
2728;SDS011;1372;47.956;7.830;2023-05-29T14:06:16;5.00;;;4.43;;
2728;SDS011;1372;47.956;7.830;2023-05-29T14:08:45;6.90;;;4.90;;
2728;SDS011;1372;47.956;7.830;2023-05-29T14:11:15;4.73;;;4.23;;
2728;SDS011;1372;47.956;7.830;2023-05-29T14:13:44;5.10;;;4.60;;
2728;SDS011;1372;47.956;7.830;2023-05-29T14:16:13;4.97;;;4.57;;
2728;SDS011;1372;47.956;7.830;2023-05-29T14:18:42;5.33;;;4.33;;
2728;SDS011;1372;47.956;7.830;2023-05-29T14:21:12;5.33;;;4.83;;
2728;SDS011;1372;47.956;7.830;2023-05-29T14:23:42;5.07;;;4.27;;
2728;SDS011;1372;47.956;7.830;2023-05-29T14:26:11;4.53;;;4.13;;
2728;SDS011;1372;47.956;7.830;2023-05-29T14:28:39;4.90;;;4.40;;
2728;SDS011;1372;47.956;7.830;2023-05-29T14:31:08;5.30;;;4.57;;
2728;SDS011;1372;47.956;7.830;2023-05-29T14:33:37;7.43;;;5.30;;
2728;SDS011;1372;47.956;7.830;2023-05-29T14:36:07;6.23;;;4.80;;
2728;SDS011;1372;47.956;7.830;2023-05-29T14:38:37;5.57;;;4.20;;
2728;SDS011;1372;47.956;7.830;2023-05-29T14:41:06;5.60;;;4.40;;
2728;SDS011;1372;47.956;7.830;2023-05-29T14:43:37;5.63;;;4.80;;
2728;SDS011;1372;47.956;7.830;2023-05-29T14:46:07;5.00;;;4.50;;
2728;SDS011;1372;47.956;7.830;2023-05-29T14:48:35;5.63;;;4.60;;
2728;SDS011;1372;47.956;7.830;2023-05-29T14:51:05;4.97;;;4.40;;
2728;SDS011;1372;47.956;7.830;2023-05-29T14:53:35;5.30;;;4.67;;
2728;SDS011;1372;47.956;7.830;2023-05-29T14:56:06;4.43;;;4.03;;
2728;SDS011;1372;47.956;7.830;2023-05-29T14:58:34;5.10;;;4.30;;
2728;SDS011;1372;47.956;7.830;2023-05-29T15:01:03;4.77;;;4.37;;
2728;SDS011;1372;47.956;7.830;2023-05-29T15:03:33;6.43;;;4.60;;
2728;SDS011;1372;47.956;7.830;2023-05-29T15:06:02;5.50;;;4.50;;
2728;SDS011;1372;47.956;7.830;2023-05-29T15:08:33;6.93;;;4.90;;
2728;SDS011;1372;47.956;7.830;2023-05-29T15:11:04;4.60;;;3.90;;
2728;SDS011;1372;47.956;7.830;2023-05-29T15:13:34;5.10;;;4.60;;
2728;SDS011;1372;47.956;7.830;2023-05-29T15:16:03;4.80;;;4.30;;
2728;SDS011;1372;47.956;7.830;2023-05-29T15:18:33;5.37;;;4.43;;
2728;SDS011;1372;47.956;7.830;2023-05-29T15:21:05;5.57;;;4.30;;
2728;SDS011;1372;47.956;7.830;2023-05-29T15:23:34;5.17;;;4.30;;
2728;SDS011;1372;47.956;7.830;2023-05-29T15:26:06;8.30;;;4.20;;
2728;SDS011;1372;47.956;7.830;2023-05-29T15:28:37;4.30;;;3.90;;
2728;SDS011;1372;47.956;7.830;2023-05-29T15:31:09;4.60;;;4.13;;
2728;SDS011;1372;47.956;7.830;2023-05-29T15:33:38;4.67;;;4.27;;
2728;SDS011;1372;47.956;7.830;2023-05-29T15:36:08;6.13;;;4.43;;
2728;SDS011;1372;47.956;7.830;2023-05-29T15:38:37;4.40;;;3.73;;
2728;SDS011;1372;47.956;7.830;2023-05-29T15:41:10;5.43;;;4.33;;
2728;SDS011;1372;47.956;7.830;2023-05-29T15:43:39;6.33;;;4.30;;
2728;SDS011;1372;47.956;7.830;2023-05-29T15:46:11;6.10;;;4.30;;
2728;SDS011;1372;47.956;7.830;2023-05-29T15:48:39;3.80;;;3.50;;
2728;SDS011;1372;47.956;7.830;2023-05-29T15:51:08;5.60;;;4.57;;